createdAt,value
2022-09-12T00:02:20.408Z,2.85
2022-09-12T00:05:23.375Z,3.03
2022-09-12T00:08:26.323Z,3.17
2022-09-12T00:11:29.275Z,2.95
2022-09-12T00:14:32.171Z,2.83
2022-09-12T00:17:35.682Z,3.33
2022-09-12T00:20:43.029Z,3.20
2022-09-12T00:23:46.231Z,3.03
2022-09-12T00:26:49.166Z,3.03
2022-09-12T00:29:52.106Z,2.60
2022-09-12T00:32:55.114Z,2.83
2022-09-12T00:35:58.005Z,2.60
2022-09-12T00:39:00.923Z,2.90
2022-09-12T00:42:03.906Z,2.60
2022-09-12T00:45:08.673Z,3.00
2022-09-12T00:48:18.597Z,2.63
2022-09-12T00:51:21.557Z,2.65
2022-09-12T00:54:26.671Z,2.70
2022-09-12T00:57:34.705Z,2.92
2022-09-12T01:00:37.840Z,2.55
2022-09-12T01:03:40.740Z,3.45
2022-09-12T01:06:44.057Z,2.70
2022-09-12T01:09:47.003Z,2.57
2022-09-12T01:12:50.026Z,2.42
2022-09-12T01:15:54.262Z,2.55
2022-09-12T01:19:19.120Z,2.40
2022-09-12T01:22:27.678Z,2.67
2022-09-12T01:25:48.299Z,2.73
2022-09-12T01:28:57.006Z,2.95
2022-09-12T01:32:10.751Z,3.30
2022-09-12T01:35:52.360Z,2.50
2022-09-12T01:39:25.114Z,2.88
2022-09-12T01:42:35.364Z,2.93
2022-09-12T01:45:45.356Z,3.15
2022-09-12T01:49:11.296Z,3.22
2022-09-12T01:52:34.708Z,2.78
2022-09-12T01:56:00.226Z,2.88
2022-09-12T01:59:11.214Z,2.70
2022-09-12T02:02:28.733Z,2.50
2022-09-12T02:05:49.233Z,2.80
2022-09-12T02:08:53.690Z,2.67
2022-09-12T02:12:00.309Z,2.30
2022-09-12T02:15:07.209Z,2.60
2022-09-12T02:18:10.860Z,2.28
2022-09-12T02:21:13.760Z,3.10
2022-09-12T02:24:16.648Z,2.63
2022-09-12T02:27:23.809Z,2.95
2022-09-12T02:30:26.744Z,2.77
2022-09-12T02:33:49.346Z,2.42
2022-09-12T02:37:04.391Z,2.63
2022-09-12T02:40:08.928Z,2.40
2022-09-12T02:43:11.859Z,3.03
2022-09-12T02:46:27.038Z,2.80
2022-09-12T02:49:29.916Z,2.28
2022-09-12T02:52:32.868Z,2.58
2022-09-12T02:55:36.624Z,2.65
2022-09-12T02:58:39.534Z,3.30
2022-09-12T03:01:54.714Z,3.07
2022-09-12T03:05:19.554Z,3.15
2022-09-12T03:08:31.317Z,3.50
2022-09-12T03:11:46.379Z,3.70
2022-09-12T03:15:17.814Z,3.60
2022-09-12T03:18:58.141Z,3.63
2022-09-12T03:22:21.602Z,3.20
2022-09-12T03:25:56.204Z,3.53
2022-09-12T03:28:59.366Z,3.30
2022-09-12T03:32:02.379Z,3.80
2022-09-12T03:35:05.485Z,3.90
2022-09-12T03:38:08.462Z,3.80
2022-09-12T03:41:11.371Z,3.75
2022-09-12T03:44:14.296Z,3.50
2022-09-12T03:47:17.185Z,3.55
2022-09-12T03:50:20.245Z,3.43
2022-09-12T03:53:23.122Z,3.60
2022-09-12T03:56:26.010Z,3.63
2022-09-12T03:59:28.908Z,3.20
2022-09-12T04:02:31.821Z,3.08
2022-09-12T04:05:35.431Z,2.80
2022-09-12T04:08:38.577Z,3.10
2022-09-12T04:11:41.546Z,2.97
2022-09-12T04:14:44.429Z,3.30
2022-09-12T04:17:47.303Z,2.97
2022-09-12T04:20:50.231Z,3.00
2022-09-12T04:23:53.210Z,3.80
2022-09-12T04:26:56.128Z,3.53
2022-09-12T04:29:59.546Z,3.60
2022-09-12T04:33:07.416Z,3.15
2022-09-12T04:36:14.641Z,2.97
2022-09-12T04:39:17.539Z,3.65
2022-09-12T04:42:20.494Z,4.03
2022-09-12T04:45:23.544Z,3.67
2022-09-12T04:48:27.044Z,3.88
2022-09-12T04:51:31.543Z,3.80
2022-09-12T04:54:34.452Z,4.20
2022-09-12T04:57:37.425Z,3.33
2022-09-12T05:00:40.364Z,3.70
2022-09-12T05:03:43.620Z,3.83
2022-09-12T05:06:47.461Z,4.37
2022-09-12T05:09:50.518Z,3.55
2022-09-12T05:12:53.869Z,4.30
2022-09-12T05:15:57.811Z,4.03
2022-09-12T05:19:00.800Z,4.05
2022-09-12T05:22:04.987Z,3.30
2022-09-12T05:25:08.675Z,3.67
2022-09-12T05:28:12.092Z,3.58
2022-09-12T05:31:16.628Z,3.75
2022-09-12T05:34:20.171Z,3.55
2022-09-12T05:37:23.286Z,4.07
2022-09-12T05:40:26.194Z,4.10
2022-09-12T05:43:29.291Z,3.40
2022-09-12T05:46:42.631Z,5.00
2022-09-12T05:49:47.952Z,3.83
2022-09-12T05:52:50.915Z,3.47
2022-09-12T05:56:03.492Z,3.53
2022-09-12T05:59:08.437Z,3.50
2022-09-12T06:02:11.543Z,3.53
2022-09-12T06:05:14.914Z,3.50
2022-09-12T06:08:18.365Z,3.77
2022-09-12T06:11:23.018Z,3.60
2022-09-12T06:14:26.045Z,4.03
2022-09-12T06:17:28.978Z,3.80
2022-09-12T06:20:31.951Z,4.18
2022-09-12T06:23:37.940Z,3.83
2022-09-12T06:26:41.025Z,4.00
2022-09-12T06:29:44.006Z,4.10
2022-09-12T06:32:46.998Z,4.00
2022-09-12T06:35:49.978Z,3.80
2022-09-12T06:38:57.301Z,3.70
2022-09-12T06:42:00.198Z,3.97
2022-09-12T06:45:11.566Z,4.57
2022-09-12T06:48:14.492Z,3.60
2022-09-12T06:51:18.766Z,3.85
2022-09-12T06:54:21.673Z,3.60
2022-09-12T06:57:28.138Z,3.80
2022-09-12T07:00:32.280Z,3.92
2022-09-12T07:03:35.733Z,4.18
2022-09-12T07:06:40.591Z,3.85
2022-09-12T07:09:43.574Z,3.40
2022-09-12T07:12:47.762Z,4.00
2022-09-12T07:15:51.665Z,3.60
2022-09-12T07:18:56.041Z,4.20
2022-09-12T07:21:58.955Z,3.42
2022-09-12T07:25:03.073Z,4.00
2022-09-12T07:28:06.270Z,3.73
2022-09-12T07:31:16.559Z,3.75
2022-09-12T07:34:19.535Z,3.70
2022-09-12T07:37:22.483Z,3.83
2022-09-12T07:40:25.379Z,3.50
2022-09-12T07:43:28.449Z,3.90
2022-09-12T07:46:34.255Z,3.88
2022-09-12T07:49:37.258Z,3.75
2022-09-12T07:52:40.382Z,3.95
2022-09-12T07:55:43.403Z,3.63
2022-09-12T07:58:46.788Z,3.70
2022-09-12T08:01:49.770Z,3.72
2022-09-12T08:04:52.935Z,3.22
2022-09-12T08:07:57.798Z,3.65
2022-09-12T08:11:01.318Z,3.07
2022-09-12T08:14:05.758Z,3.07
2022-09-12T08:17:08.789Z,3.20
2022-09-12T08:20:12.416Z,3.10
2022-09-12T08:23:15.388Z,3.35
2022-09-12T08:26:18.521Z,3.50
2022-09-12T08:29:21.597Z,3.67
2022-09-12T08:32:24.492Z,3.80
2022-09-12T08:35:27.399Z,4.10
2022-09-12T08:38:30.318Z,4.00
2022-09-12T08:41:43.472Z,3.20
2022-09-12T08:44:50.314Z,3.70
2022-09-12T08:47:53.299Z,3.50
2022-09-12T08:50:56.205Z,3.05
2022-09-12T08:53:59.103Z,3.42
2022-09-12T08:57:06.924Z,3.20
2022-09-12T09:00:14.029Z,3.57
2022-09-12T09:03:49.294Z,3.53
2022-09-12T09:07:16.874Z,3.17
2022-09-12T09:10:25.338Z,3.88
2022-09-12T09:14:16.450Z,3.53
2022-09-12T09:17:35.932Z,3.00
2022-09-12T09:20:57.417Z,3.08
2022-09-12T09:24:10.183Z,3.05
2022-09-12T09:27:40.467Z,2.95
2022-09-12T09:30:45.465Z,3.27
2022-09-12T09:33:54.092Z,3.40
2022-09-12T09:37:08.833Z,3.70
2022-09-12T09:40:15.495Z,2.95
2022-09-12T09:43:27.455Z,2.45
2022-09-12T09:46:30.449Z,3.50
2022-09-12T09:49:35.600Z,2.80
2022-09-12T09:52:39.719Z,2.80
2022-09-12T09:55:43.942Z,2.70
2022-09-12T09:58:46.917Z,2.55
2022-09-12T10:01:51.589Z,3.23
2022-09-12T10:04:57.819Z,3.10
2022-09-12T10:08:00.810Z,2.45
2022-09-12T10:11:06.467Z,3.08
2022-09-12T10:14:26.339Z,2.53
2022-09-12T10:17:43.428Z,3.83
2022-09-12T10:20:46.470Z,2.73
2022-09-12T10:23:51.858Z,2.75
2022-09-12T10:27:08.373Z,2.65
2022-09-12T10:30:18.785Z,2.95
2022-09-12T10:33:21.832Z,3.07
2022-09-12T10:36:24.802Z,3.40
2022-09-12T10:39:27.788Z,3.22
2022-09-12T10:42:53.885Z,2.90
2022-09-12T10:46:20.174Z,2.60
2022-09-12T10:49:38.129Z,2.80
2022-09-12T10:52:41.098Z,2.83
2022-09-12T10:55:53.121Z,2.80
2022-09-12T10:59:20.879Z,2.42
2022-09-12T11:02:32.058Z,2.67
2022-09-12T11:06:01.735Z,2.53
2022-09-12T11:09:53.021Z,2.80
2022-09-12T11:13:17.479Z,3.03
2022-09-12T11:16:32.599Z,3.15
2022-09-12T11:19:54.898Z,3.85
2022-09-12T11:23:30.750Z,2.70
2022-09-12T11:26:42.496Z,2.53
2022-09-12T11:29:57.440Z,2.22
2022-09-12T11:33:29.478Z,2.50
2022-09-12T11:36:46.954Z,2.20
2022-09-12T11:39:54.745Z,2.17
2022-09-12T11:43:30.064Z,2.33
2022-09-12T11:46:46.727Z,2.50
2022-09-12T11:49:52.854Z,2.40
2022-09-12T11:53:38.067Z,2.50
2022-09-12T11:56:46.331Z,2.53
2022-09-12T12:00:08.513Z,2.60
2022-09-12T12:03:27.167Z,2.38
2022-09-12T12:06:34.117Z,2.30
2022-09-12T12:09:48.260Z,2.60
2022-09-12T12:12:51.701Z,2.40
2022-09-12T12:16:15.143Z,2.80
2022-09-12T12:19:18.024Z,2.70
2022-09-12T12:22:24.192Z,2.90
2022-09-12T12:25:41.428Z,3.38
2022-09-12T12:28:50.391Z,2.00
2022-09-12T12:31:59.442Z,2.50
2022-09-12T12:35:03.937Z,1.92
2022-09-12T12:38:28.200Z,2.67
2022-09-12T12:41:37.060Z,2.65
2022-09-12T12:44:45.817Z,2.90
2022-09-12T12:47:50.184Z,2.60
2022-09-12T12:50:53.075Z,2.10
2022-09-12T12:53:56.149Z,2.35
2022-09-12T12:57:30.731Z,2.13
2022-09-12T13:00:35.469Z,2.10
2022-09-12T13:03:38.802Z,2.33
2022-09-12T13:06:45.105Z,2.53
2022-09-12T13:09:50.014Z,2.15
2022-09-12T13:12:52.967Z,2.08
2022-09-12T13:15:55.914Z,1.90
2022-09-12T13:19:01.903Z,2.23
2022-09-12T13:22:09.267Z,2.08
2022-09-12T13:25:22.714Z,2.20
2022-09-12T13:28:29.214Z,2.55
2022-09-12T13:31:32.358Z,2.00
2022-09-12T13:34:56.171Z,2.03
2022-09-12T13:38:20.620Z,2.00
2022-09-12T13:41:51.127Z,1.95
2022-09-12T13:45:13.097Z,2.00
2022-09-12T13:48:20.747Z,1.80
2022-09-12T13:51:28.496Z,2.20
2022-09-12T13:54:31.478Z,2.45
2022-09-12T13:57:39.557Z,2.15
2022-09-12T14:00:42.592Z,2.20
2022-09-12T14:04:11.753Z,1.90
2022-09-12T14:07:22.353Z,1.80
2022-09-12T14:10:34.232Z,2.10
2022-09-12T14:13:38.743Z,2.35
2022-09-12T14:16:42.026Z,1.83
2022-09-12T14:19:46.558Z,2.20
2022-09-12T14:22:53.169Z,1.87
2022-09-12T14:25:56.982Z,1.77
2022-09-12T14:29:00.448Z,1.55
2022-09-12T14:32:04.562Z,1.80
2022-09-12T14:35:19.781Z,1.90
2022-09-12T14:38:30.486Z,1.70
2022-09-12T14:41:39.777Z,1.80
2022-09-12T14:45:04.093Z,2.15
2022-09-12T14:48:06.978Z,1.88
2022-09-12T14:51:21.915Z,1.97
2022-09-12T14:54:45.069Z,1.70
2022-09-12T14:57:50.474Z,1.92
2022-09-12T15:01:13.706Z,1.50
2022-09-12T15:04:40.098Z,1.90
2022-09-12T15:07:43.841Z,1.93
2022-09-12T15:10:46.851Z,1.80
2022-09-12T15:13:49.870Z,1.95
2022-09-12T15:16:52.771Z,1.65
2022-09-12T15:19:55.753Z,1.50
2022-09-12T15:22:58.746Z,1.47
2022-09-12T15:26:02.028Z,1.47
2022-09-12T15:29:04.912Z,1.40
2022-09-12T15:32:09.692Z,1.85
2022-09-12T15:35:15.789Z,1.65
2022-09-12T15:38:21.046Z,1.50
2022-09-12T15:41:32.738Z,1.30
2022-09-12T15:44:36.904Z,1.65
2022-09-12T15:47:39.982Z,1.80
2022-09-12T15:50:42.928Z,1.58
2022-09-12T15:53:46.150Z,1.60
2022-09-12T15:56:49.219Z,1.70
2022-09-12T15:59:52.682Z,1.50
2022-09-12T16:02:55.618Z,1.27
2022-09-12T16:06:02.482Z,1.58
2022-09-12T16:09:05.466Z,1.60
2022-09-12T16:12:09.256Z,1.93
2022-09-12T16:15:17.451Z,1.60
2022-09-12T16:18:20.376Z,1.80
2022-09-12T16:21:23.420Z,1.83
2022-09-12T16:24:26.349Z,1.73
2022-09-12T16:27:29.260Z,1.63
2022-09-12T16:30:35.280Z,1.80
2022-09-12T16:33:38.442Z,2.00
2022-09-12T16:36:41.380Z,1.42
2022-09-12T16:39:44.427Z,1.80
2022-09-12T16:42:47.425Z,1.70
2022-09-12T16:45:51.894Z,1.52
2022-09-12T16:48:56.712Z,1.77
2022-09-12T16:51:59.928Z,1.80
2022-09-12T16:55:02.867Z,2.00
2022-09-12T16:58:05.808Z,1.70
2022-09-12T17:01:17.073Z,2.00
2022-09-12T17:04:23.464Z,1.70
2022-09-12T17:07:26.655Z,1.60
2022-09-12T17:10:30.702Z,2.00
2022-09-12T17:14:00.069Z,1.80
2022-09-12T17:16:56.527Z,1.75
2022-09-12T17:19:59.440Z,1.50
2022-09-12T17:23:05.403Z,1.85
2022-09-12T17:26:10.787Z,1.87
2022-09-12T17:29:14.331Z,1.80
2022-09-12T17:32:17.713Z,1.70
2022-09-12T17:35:20.702Z,1.70
2022-09-12T17:38:25.343Z,1.58
2022-09-12T17:41:28.959Z,1.70
2022-09-12T17:44:31.929Z,1.80
2022-09-12T17:47:34.850Z,1.80
2022-09-12T17:50:41.092Z,2.33
2022-09-12T17:53:44.091Z,2.70
2022-09-12T17:56:47.349Z,2.57
2022-09-12T17:59:50.235Z,2.20
2022-09-12T18:02:53.173Z,2.17
2022-09-12T18:05:56.502Z,1.92
2022-09-12T18:09:07.563Z,2.03
2022-09-12T18:12:10.690Z,2.60
2022-09-12T18:15:13.636Z,3.30
2022-09-12T18:18:16.649Z,3.50
2022-09-12T18:21:19.888Z,3.33
2022-09-12T18:24:22.912Z,3.10
2022-09-12T18:27:25.868Z,2.97
2022-09-12T18:30:30.129Z,3.00
2022-09-12T18:33:33.056Z,2.55
2022-09-12T18:36:36.068Z,2.55
2022-09-12T18:39:38.992Z,2.20
2022-09-12T18:42:41.967Z,2.20
2022-09-12T18:45:44.937Z,2.30
2022-09-12T18:48:47.911Z,2.67
2022-09-12T18:51:50.846Z,2.00
2022-09-12T18:54:53.833Z,2.08
2022-09-12T18:57:56.771Z,2.17
2022-09-12T19:00:59.932Z,2.50
2022-09-12T19:04:06.031Z,2.40
2022-09-12T19:07:08.959Z,2.17
2022-09-12T19:10:12.158Z,2.40
2022-09-12T19:13:15.042Z,2.43
2022-09-12T19:16:19.751Z,2.30
2022-09-12T19:19:22.731Z,2.17
2022-09-12T19:22:26.319Z,2.30
2022-09-12T19:25:29.392Z,2.45
2022-09-12T19:28:32.506Z,2.50
2022-09-12T19:31:35.552Z,2.50
2022-09-12T19:34:38.552Z,2.65
2022-09-12T19:37:41.443Z,2.40
2022-09-12T19:40:44.424Z,2.33
2022-09-12T19:43:47.404Z,2.70
2022-09-12T19:46:51.097Z,3.27
2022-09-12T19:49:53.978Z,2.70
2022-09-12T19:52:57.172Z,2.97
2022-09-12T19:56:04.367Z,2.78
2022-09-12T19:59:07.347Z,2.40
2022-09-12T20:02:10.459Z,2.50
2022-09-12T20:05:13.616Z,3.00
2022-09-12T20:08:16.650Z,2.70
2022-09-12T20:11:20.499Z,2.90
2022-09-12T20:14:23.488Z,2.60
2022-09-12T20:17:26.431Z,3.07
2022-09-12T20:20:29.479Z,3.22
2022-09-12T20:23:32.485Z,3.25
2022-09-12T20:26:35.502Z,2.72
2022-09-12T20:29:38.413Z,2.63
2022-09-12T20:32:42.011Z,2.90
2022-09-12T20:35:45.006Z,2.85
2022-09-12T20:38:49.640Z,2.90
2022-09-12T20:41:52.617Z,2.83
2022-09-12T20:44:56.036Z,3.03
2022-09-12T20:47:58.921Z,2.70
2022-09-12T20:51:01.885Z,2.72
2022-09-12T20:54:06.253Z,2.75
2022-09-12T20:57:09.135Z,2.92
2022-09-12T21:00:12.589Z,2.80
2022-09-12T21:03:16.132Z,3.13
2022-09-12T21:06:19.299Z,2.65
2022-09-12T21:09:22.183Z,2.70
2022-09-12T21:12:25.067Z,2.85
2022-09-12T21:15:28.054Z,2.83
2022-09-12T21:18:31.238Z,2.80
2022-09-12T21:21:34.135Z,2.80
2022-09-12T21:24:37.055Z,3.00
2022-09-12T21:27:39.958Z,3.17
2022-09-12T21:30:43.681Z,2.70
2022-09-12T21:33:46.650Z,2.77
2022-09-12T21:36:49.734Z,2.97
2022-09-12T21:39:52.938Z,2.70
2022-09-12T21:42:56.133Z,2.53
2022-09-12T21:46:02.386Z,2.60
2022-09-12T21:49:06.556Z,3.10
2022-09-12T21:52:09.543Z,2.90
2022-09-12T21:55:12.740Z,2.75
2022-09-12T21:58:15.678Z,3.13
2022-09-12T22:01:18.651Z,2.63
2022-09-12T22:04:21.733Z,2.73
2022-09-12T22:07:25.046Z,3.13
2022-09-12T22:10:28.457Z,3.00
2022-09-12T22:13:32.118Z,3.20
2022-09-12T22:16:35.122Z,3.20
2022-09-12T22:19:38.023Z,3.10
2022-09-12T22:23:13.367Z,3.03
2022-09-12T22:26:16.282Z,2.95
2022-09-12T22:29:19.666Z,3.33
2022-09-12T22:32:22.586Z,2.97
2022-09-12T22:35:25.571Z,3.20
2022-09-12T22:38:28.473Z,3.60
2022-09-12T22:41:31.762Z,3.40
2022-09-12T22:44:34.687Z,3.05
2022-09-12T22:47:37.661Z,2.90
2022-09-12T22:50:40.859Z,3.30
2022-09-12T22:53:43.753Z,3.00
2022-09-12T22:56:46.827Z,2.60
2022-09-12T22:59:50.272Z,3.05
2022-09-12T23:02:53.847Z,3.57
2022-09-12T23:05:56.758Z,3.20
2022-09-12T23:08:59.678Z,3.30
2022-09-12T23:12:02.802Z,3.10
2022-09-12T23:15:06.221Z,3.35
2022-09-12T23:18:09.129Z,3.20
2022-09-12T23:21:12.389Z,3.63
2022-09-12T23:24:15.380Z,3.10
2022-09-12T23:27:18.257Z,3.10
2022-09-12T23:30:21.657Z,3.50
2022-09-12T23:33:24.715Z,3.17
2022-09-12T23:36:28.005Z,3.37
2022-09-12T23:39:31.817Z,3.30
2022-09-12T23:42:34.718Z,2.95
2022-09-12T23:45:37.668Z,3.22
2022-09-12T23:48:40.679Z,3.43
2022-09-12T23:51:44.499Z,3.20
2022-09-12T23:54:47.376Z,3.25
2022-09-12T23:57:50.309Z,3.10
